sensor_id;sensor_type;location;lat;lon;timestamp;P1;durP1;ratioP1;P2;durP2;ratioP2
2750;SDS011;1383;48.362;10.908;2023-02-05T00:00:25;12.05;;;9.18;;
2750;SDS011;1383;48.362;10.908;2023-02-05T00:02:52;10.57;;;8.75;;
2750;SDS011;1383;48.362;10.908;2023-02-05T00:05:18;8.68;;;6.75;;
2750;SDS011;1383;48.362;10.908;2023-02-05T00:07:45;8.07;;;7.18;;
2750;SDS011;1383;48.362;10.908;2023-02-05T00:10:12;9.75;;;7.30;;
2750;SDS011;1383;48.362;10.908;2023-02-05T00:12:39;8.23;;;7.18;;
2750;SDS011;1383;48.362;10.908;2023-02-05T00:15:05;8.88;;;7.80;;
2750;SDS011;1383;48.362;10.908;2023-02-05T00:17:33;8.50;;;6.90;;
2750;SDS011;1383;48.362;10.908;2023-02-05T00:20:01;9.00;;;6.45;;
2750;SDS011;1383;48.362;10.908;2023-02-05T00:22:29;8.30;;;6.60;;
2750;SDS011;1383;48.362;10.908;2023-02-05T00:24:56;9.93;;;7.18;;
2750;SDS011;1383;48.362;10.908;2023-02-05T00:27:23;7.80;;;6.47;;
2750;SDS011;1383;48.362;10.908;2023-02-05T00:29:50;9.27;;;7.18;;
2750;SDS011;1383;48.362;10.908;2023-02-05T00:32:17;12.88;;;7.97;;
2750;SDS011;1383;48.362;10.908;2023-02-05T00:34:43;9.55;;;7.88;;
2750;SDS011;1383;48.362;10.908;2023-02-05T00:37:10;11.00;;;7.95;;
2750;SDS011;1383;48.362;10.908;2023-02-05T00:39:37;7.32;;;6.10;;
2750;SDS011;1383;48.362;10.908;2023-02-05T00:42:04;8.77;;;6.93;;
2750;SDS011;1383;48.362;10.908;2023-02-05T00:44:30;10.02;;;7.55;;
2750;SDS011;1383;48.362;10.908;2023-02-05T00:46:57;9.45;;;7.50;;
2750;SDS011;1383;48.362;10.908;2023-02-05T00:49:24;9.23;;;7.85;;
2750;SDS011;1383;48.362;10.908;2023-02-05T00:51:51;9.50;;;8.55;;
2750;SDS011;1383;48.362;10.908;2023-02-05T00:54:18;8.20;;;6.80;;
2750;SDS011;1383;48.362;10.908;2023-02-05T00:56:44;9.00;;;6.80;;
2750;SDS011;1383;48.362;10.908;2023-02-05T00:59:11;9.40;;;7.10;;
2750;SDS011;1383;48.362;10.908;2023-02-05T01:01:41;7.45;;;6.30;;
2750;SDS011;1383;48.362;10.908;2023-02-05T01:04:08;11.88;;;7.45;;
2750;SDS011;1383;48.362;10.908;2023-02-05T01:06:34;7.15;;;6.45;;
2750;SDS011;1383;48.362;10.908;2023-02-05T01:09:01;7.18;;;6.45;;
2750;SDS011;1383;48.362;10.908;2023-02-05T01:11:28;8.50;;;7.05;;
2750;SDS011;1383;48.362;10.908;2023-02-05T01:13:55;7.28;;;6.30;;
2750;SDS011;1383;48.362;10.908;2023-02-05T01:16:22;9.27;;;7.07;;
2750;SDS011;1383;48.362;10.908;2023-02-05T01:18:48;8.18;;;7.35;;
2750;SDS011;1383;48.362;10.908;2023-02-05T01:21:15;12.02;;;9.02;;
2750;SDS011;1383;48.362;10.908;2023-02-05T01:23:42;8.82;;;7.55;;
2750;SDS011;1383;48.362;10.908;2023-02-05T01:26:09;9.43;;;7.80;;
2750;SDS011;1383;48.362;10.908;2023-02-05T01:28:36;10.77;;;8.52;;
2750;SDS011;1383;48.362;10.908;2023-02-05T01:31:02;7.80;;;7.03;;
2750;SDS011;1383;48.362;10.908;2023-02-05T01:33:29;10.55;;;8.85;;
2750;SDS011;1383;48.362;10.908;2023-02-05T01:35:56;10.30;;;7.30;;
2750;SDS011;1383;48.362;10.908;2023-02-05T01:38:23;10.95;;;8.50;;
2750;SDS011;1383;48.362;10.908;2023-02-05T01:40:49;11.10;;;8.35;;
2750;SDS011;1383;48.362;10.908;2023-02-05T01:43:17;10.90;;;7.63;;
2750;SDS011;1383;48.362;10.908;2023-02-05T01:48:24;17.35;;;10.27;;
2750;SDS011;1383;48.362;10.908;2023-02-05T01:51:01;20.25;;;10.40;;
2750;SDS011;1383;48.362;10.908;2023-02-05T01:53:31;10.10;;;8.93;;
2750;SDS011;1383;48.362;10.908;2023-02-05T01:56:05;12.32;;;9.43;;
2750;SDS011;1383;48.362;10.908;2023-02-05T01:58:36;12.07;;;8.77;;
2750;SDS011;1383;48.362;10.908;2023-02-05T02:01:07;11.07;;;9.93;;
2750;SDS011;1383;48.362;10.908;2023-02-05T02:03:34;13.07;;;10.10;;
2750;SDS011;1383;48.362;10.908;2023-02-05T02:06:01;11.63;;;9.05;;
2750;SDS011;1383;48.362;10.908;2023-02-05T02:08:29;12.40;;;10.60;;
2750;SDS011;1383;48.362;10.908;2023-02-05T02:10:58;17.00;;;12.43;;
2750;SDS011;1383;48.362;10.908;2023-02-05T02:13:27;13.57;;;11.18;;
2750;SDS011;1383;48.362;10.908;2023-02-05T02:15:56;13.18;;;9.65;;
2750;SDS011;1383;48.362;10.908;2023-02-05T02:18:23;13.10;;;11.30;;
2750;SDS011;1383;48.362;10.908;2023-02-05T02:26:47;14.52;;;10.93;;
2750;SDS011;1383;48.362;10.908;2023-02-05T02:29:38;15.18;;;13.38;;
2750;SDS011;1383;48.362;10.908;2023-02-05T02:32:17;18.08;;;12.95;;
2750;SDS011;1383;48.362;10.908;2023-02-05T02:34:50;25.15;;;17.05;;
2750;SDS011;1383;48.362;10.908;2023-02-05T02:37:34;25.52;;;17.23;;
2750;SDS011;1383;48.362;10.908;2023-02-05T02:40:17;19.10;;;16.13;;
2750;SDS011;1383;48.362;10.908;2023-02-05T02:43:03;23.17;;;16.30;;
2750;SDS011;1383;48.362;10.908;2023-02-05T02:45:45;22.23;;;15.90;;
2750;SDS011;1383;48.362;10.908;2023-02-05T02:48:17;17.80;;;14.60;;
2750;SDS011;1383;48.362;10.908;2023-02-05T02:50:47;19.52;;;13.95;;
2750;SDS011;1383;48.362;10.908;2023-02-05T02:53:21;22.10;;;15.23;;
2750;SDS011;1383;48.362;10.908;2023-02-05T02:55:53;18.42;;;14.40;;
2750;SDS011;1383;48.362;10.908;2023-02-05T02:58:22;17.23;;;13.40;;
2750;SDS011;1383;48.362;10.908;2023-02-05T03:00:53;21.05;;;14.95;;
2750;SDS011;1383;48.362;10.908;2023-02-05T03:03:22;16.73;;;12.02;;
2750;SDS011;1383;48.362;10.908;2023-02-05T03:05:51;15.07;;;12.10;;
2750;SDS011;1383;48.362;10.908;2023-02-05T03:08:26;16.98;;;12.98;;
2750;SDS011;1383;48.362;10.908;2023-02-05T03:11:00;19.17;;;12.98;;
2750;SDS011;1383;48.362;10.908;2023-02-05T03:13:31;16.63;;;13.05;;
2750;SDS011;1383;48.362;10.908;2023-02-05T03:15:59;18.38;;;12.60;;
2750;SDS011;1383;48.362;10.908;2023-02-05T03:18:26;18.25;;;11.70;;
2750;SDS011;1383;48.362;10.908;2023-02-05T03:20:55;15.38;;;12.60;;
2750;SDS011;1383;48.362;10.908;2023-02-05T03:23:25;18.30;;;12.25;;
2750;SDS011;1383;48.362;10.908;2023-02-05T03:25:53;11.50;;;10.30;;
2750;SDS011;1383;48.362;10.908;2023-02-05T03:28:19;13.02;;;9.07;;
2750;SDS011;1383;48.362;10.908;2023-02-05T03:30:54;10.98;;;9.90;;
2750;SDS011;1383;48.362;10.908;2023-02-05T03:36:23;9.52;;;8.60;;
2750;SDS011;1383;48.362;10.908;2023-02-05T03:50:27;10.75;;;7.70;;
2750;SDS011;1383;48.362;10.908;2023-02-05T03:53:21;12.70;;;9.00;;
2750;SDS011;1383;48.362;10.908;2023-02-05T03:55:58;10.20;;;8.27;;
2750;SDS011;1383;48.362;10.908;2023-02-05T03:58:32;9.35;;;7.72;;
2750;SDS011;1383;48.362;10.908;2023-02-05T04:01:03;8.73;;;7.82;;
2750;SDS011;1383;48.362;10.908;2023-02-05T04:03:32;9.25;;;6.78;;
2750;SDS011;1383;48.362;10.908;2023-02-05T04:05:59;13.02;;;9.30;;
2750;SDS011;1383;48.362;10.908;2023-02-05T04:08:26;9.05;;;6.03;;
2750;SDS011;1383;48.362;10.908;2023-02-05T04:10:52;8.55;;;7.20;;
2750;SDS011;1383;48.362;10.908;2023-02-05T04:13:19;8.75;;;7.70;;
2750;SDS011;1383;48.362;10.908;2023-02-05T04:15:49;9.07;;;6.78;;
2750;SDS011;1383;48.362;10.908;2023-02-05T04:18:16;9.77;;;7.80;;
2750;SDS011;1383;48.362;10.908;2023-02-05T04:20:44;7.63;;;6.80;;
2750;SDS011;1383;48.362;10.908;2023-02-05T04:23:10;8.27;;;7.43;;
2750;SDS011;1383;48.362;10.908;2023-02-05T04:25:37;8.55;;;6.55;;
2750;SDS011;1383;48.362;10.908;2023-02-05T04:28:06;7.72;;;6.97;;
2750;SDS011;1383;48.362;10.908;2023-02-05T04:30:34;8.80;;;7.07;;
2750;SDS011;1383;48.362;10.908;2023-02-05T04:33:01;10.13;;;7.22;;
2750;SDS011;1383;48.362;10.908;2023-02-05T04:35:28;10.30;;;7.10;;
2750;SDS011;1383;48.362;10.908;2023-02-05T04:37:55;9.38;;;8.35;;
2750;SDS011;1383;48.362;10.908;2023-02-05T04:40:21;9.38;;;8.38;;
2750;SDS011;1383;48.362;10.908;2023-02-05T04:42:48;6.00;;;5.45;;
2750;SDS011;1383;48.362;10.908;2023-02-05T04:45:15;11.70;;;7.43;;
2750;SDS011;1383;48.362;10.908;2023-02-05T04:47:41;8.73;;;6.43;;
2750;SDS011;1383;48.362;10.908;2023-02-05T04:50:08;6.93;;;6.15;;
2750;SDS011;1383;48.362;10.908;2023-02-05T04:52:35;6.95;;;6.25;;
2750;SDS011;1383;48.362;10.908;2023-02-05T04:55:02;7.25;;;6.05;;
2750;SDS011;1383;48.362;10.908;2023-02-05T04:57:29;9.10;;;5.53;;
2750;SDS011;1383;48.362;10.908;2023-02-05T04:59:56;6.00;;;5.40;;
2750;SDS011;1383;48.362;10.908;2023-02-05T05:02:23;6.25;;;5.65;;
2750;SDS011;1383;48.362;10.908;2023-02-05T05:04:50;6.55;;;5.85;;
2750;SDS011;1383;48.362;10.908;2023-02-05T05:07:17;7.25;;;6.55;;
2750;SDS011;1383;48.362;10.908;2023-02-05T05:09:43;8.93;;;6.32;;
2750;SDS011;1383;48.362;10.908;2023-02-05T05:12:10;7.28;;;5.85;;
2750;SDS011;1383;48.362;10.908;2023-02-05T05:14:37;6.68;;;5.45;;
2750;SDS011;1383;48.362;10.908;2023-02-05T05:17:04;7.30;;;5.97;;
2750;SDS011;1383;48.362;10.908;2023-02-05T05:19:30;6.55;;;5.95;;
2750;SDS011;1383;48.362;10.908;2023-02-05T05:21:58;7.40;;;5.78;;
2750;SDS011;1383;48.362;10.908;2023-02-05T05:24:25;7.75;;;5.85;;
2750;SDS011;1383;48.362;10.908;2023-02-05T05:26:51;7.22;;;6.13;;
2750;SDS011;1383;48.362;10.908;2023-02-05T05:29:18;7.15;;;6.40;;
2750;SDS011;1383;48.362;10.908;2023-02-05T05:31:45;8.00;;;6.32;;
2750;SDS011;1383;48.362;10.908;2023-02-05T05:34:12;6.28;;;5.65;;
2750;SDS011;1383;48.362;10.908;2023-02-05T05:36:39;7.80;;;6.43;;
2750;SDS011;1383;48.362;10.908;2023-02-05T05:39:08;6.28;;;5.68;;
2750;SDS011;1383;48.362;10.908;2023-02-05T05:41:54;6.00;;;5.43;;
2750;SDS011;1383;48.362;10.908;2023-02-05T05:44:39;7.03;;;6.05;;
2750;SDS011;1383;48.362;10.908;2023-02-05T05:47:06;6.20;;;5.60;;
2750;SDS011;1383;48.362;10.908;2023-02-05T05:49:33;6.28;;;5.38;;
2750;SDS011;1383;48.362;10.908;2023-02-05T05:51:59;6.65;;;5.03;;
2750;SDS011;1383;48.362;10.908;2023-02-05T05:54:26;8.05;;;5.80;;
2750;SDS011;1383;48.362;10.908;2023-02-05T05:56:53;9.80;;;6.82;;
2750;SDS011;1383;48.362;10.908;2023-02-05T05:59:19;6.93;;;6.25;;
2750;SDS011;1383;48.362;10.908;2023-02-05T06:01:46;6.38;;;5.78;;
2750;SDS011;1383;48.362;10.908;2023-02-05T06:04:13;6.55;;;5.95;;
2750;SDS011;1383;48.362;10.908;2023-02-05T06:06:40;7.20;;;6.05;;
2750;SDS011;1383;48.362;10.908;2023-02-05T06:09:07;7.45;;;5.93;;
2750;SDS011;1383;48.362;10.908;2023-02-05T06:11:34;9.20;;;6.75;;
2750;SDS011;1383;48.362;10.908;2023-02-05T06:14:01;7.75;;;5.78;;
2750;SDS011;1383;48.362;10.908;2023-02-05T06:16:28;8.00;;;6.47;;
2750;SDS011;1383;48.362;10.908;2023-02-05T06:18:55;7.68;;;5.90;;
2750;SDS011;1383;48.362;10.908;2023-02-05T06:21:22;6.25;;;5.50;;
2750;SDS011;1383;48.362;10.908;2023-02-05T06:23:49;11.85;;;7.53;;
2750;SDS011;1383;48.362;10.908;2023-02-05T06:26:15;7.28;;;5.63;;
2750;SDS011;1383;48.362;10.908;2023-02-05T06:28:42;8.02;;;5.93;;
2750;SDS011;1383;48.362;10.908;2023-02-05T06:31:09;5.97;;;5.35;;
2750;SDS011;1383;48.362;10.908;2023-02-05T06:33:36;8.45;;;7.68;;
2750;SDS011;1383;48.362;10.908;2023-02-05T06:36:03;9.02;;;6.32;;
2750;SDS011;1383;48.362;10.908;2023-02-05T06:38:30;8.00;;;6.80;;
2750;SDS011;1383;48.362;10.908;2023-02-05T06:40:56;8.57;;;6.97;;
2750;SDS011;1383;48.362;10.908;2023-02-05T06:43:23;6.95;;;6.28;;
2750;SDS011;1383;48.362;10.908;2023-02-05T06:45:50;10.20;;;8.20;;
2750;SDS011;1383;48.362;10.908;2023-02-05T06:48:17;9.85;;;8.80;;
2750;SDS011;1383;48.362;10.908;2023-02-05T06:50:43;10.45;;;9.23;;
2750;SDS011;1383;48.362;10.908;2023-02-05T06:53:11;11.02;;;8.63;;
2750;SDS011;1383;48.362;10.908;2023-02-05T06:55:37;11.02;;;8.15;;
2750;SDS011;1383;48.362;10.908;2023-02-05T06:58:04;10.65;;;7.72;;
2750;SDS011;1383;48.362;10.908;2023-02-05T07:00:33;9.95;;;8.93;;
2750;SDS011;1383;48.362;10.908;2023-02-05T07:03:00;12.60;;;8.65;;
2750;SDS011;1383;48.362;10.908;2023-02-05T07:05:27;10.98;;;8.57;;
2750;SDS011;1383;48.362;10.908;2023-02-05T07:07:54;11.18;;;8.98;;
2750;SDS011;1383;48.362;10.908;2023-02-05T07:10:20;10.50;;;9.15;;
2750;SDS011;1383;48.362;10.908;2023-02-05T07:12:47;20.20;;;13.18;;
2750;SDS011;1383;48.362;10.908;2023-02-05T07:15:14;31.08;;;16.42;;
2750;SDS011;1383;48.362;10.908;2023-02-05T07:17:41;21.92;;;16.30;;
2750;SDS011;1383;48.362;10.908;2023-02-05T07:20:08;16.58;;;12.63;;
2750;SDS011;1383;48.362;10.908;2023-02-05T07:22:35;13.68;;;10.38;;
2750;SDS011;1383;48.362;10.908;2023-02-05T07:25:02;13.90;;;10.18;;
2750;SDS011;1383;48.362;10.908;2023-02-05T07:27:30;11.85;;;8.05;;
2750;SDS011;1383;48.362;10.908;2023-02-05T07:29:56;10.50;;;7.72;;
2750;SDS011;1383;48.362;10.908;2023-02-05T07:32:23;9.00;;;8.15;;
2750;SDS011;1383;48.362;10.908;2023-02-05T07:34:50;8.48;;;7.68;;
2750;SDS011;1383;48.362;10.908;2023-02-05T07:37:17;8.18;;;6.97;;
2750;SDS011;1383;48.362;10.908;2023-02-05T07:39:46;6.78;;;6.18;;
2750;SDS011;1383;48.362;10.908;2023-02-05T07:42:13;7.15;;;5.53;;
2750;SDS011;1383;48.362;10.908;2023-02-05T07:44:39;8.00;;;6.60;;
2750;SDS011;1383;48.362;10.908;2023-02-05T07:47:06;8.60;;;7.25;;
2750;SDS011;1383;48.362;10.908;2023-02-05T07:49:33;7.63;;;6.93;;
2750;SDS011;1383;48.362;10.908;2023-02-05T07:52:01;9.10;;;7.60;;
2750;SDS011;1383;48.362;10.908;2023-02-05T07:54:27;11.88;;;7.40;;
2750;SDS011;1383;48.362;10.908;2023-02-05T07:56:54;11.07;;;7.30;;
2750;SDS011;1383;48.362;10.908;2023-02-05T07:59:21;9.45;;;7.35;;
2750;SDS011;1383;48.362;10.908;2023-02-05T08:01:48;8.38;;;7.45;;
2750;SDS011;1383;48.362;10.908;2023-02-05T08:04:15;8.40;;;6.40;;
2750;SDS011;1383;48.362;10.908;2023-02-05T08:06:41;9.88;;;7.45;;
2750;SDS011;1383;48.362;10.908;2023-02-05T08:09:09;9.52;;;7.43;;
2750;SDS011;1383;48.362;10.908;2023-02-05T08:11:36;8.07;;;6.85;;
2750;SDS011;1383;48.362;10.908;2023-02-05T08:14:03;7.57;;;6.85;;
2750;SDS011;1383;48.362;10.908;2023-02-05T08:16:30;7.82;;;6.55;;
2750;SDS011;1383;48.362;10.908;2023-02-05T08:18:56;7.75;;;6.85;;
2750;SDS011;1383;48.362;10.908;2023-02-05T08:21:23;8.40;;;6.97;;
2750;SDS011;1383;48.362;10.908;2023-02-05T08:23:50;8.75;;;6.60;;
2750;SDS011;1383;48.362;10.908;2023-02-05T08:26:17;10.52;;;7.18;;
2750;SDS011;1383;48.362;10.908;2023-02-05T08:28:44;7.57;;;6.55;;
2750;SDS011;1383;48.362;10.908;2023-02-05T08:31:12;8.45;;;7.55;;
2750;SDS011;1383;48.362;10.908;2023-02-05T08:33:40;7.70;;;6.80;;
2750;SDS011;1383;48.362;10.908;2023-02-05T08:36:07;7.40;;;6.65;;
2750;SDS011;1383;48.362;10.908;2023-02-05T08:38:35;7.15;;;6.45;;
2750;SDS011;1383;48.362;10.908;2023-02-05T08:41:02;6.97;;;6.28;;
2750;SDS011;1383;48.362;10.908;2023-02-05T08:43:44;7.82;;;6.57;;
2750;SDS011;1383;48.362;10.908;2023-02-05T08:46:13;6.78;;;6.07;;
2750;SDS011;1383;48.362;10.908;2023-02-05T08:48:44;8.50;;;7.60;;
2750;SDS011;1383;48.362;10.908;2023-02-05T08:51:12;8.43;;;6.80;;
2750;SDS011;1383;48.362;10.908;2023-02-05T08:53:40;9.25;;;8.32;;
2750;SDS011;1383;48.362;10.908;2023-02-05T08:56:07;8.48;;;7.65;;
2750;SDS011;1383;48.362;10.908;2023-02-05T08:58:36;9.73;;;7.45;;
2750;SDS011;1383;48.362;10.908;2023-02-05T09:01:08;10.57;;;9.13;;
2750;SDS011;1383;48.362;10.908;2023-02-05T09:03:37;10.38;;;8.98;;
2750;SDS011;1383;48.362;10.908;2023-02-05T09:06:05;9.98;;;8.60;;
2750;SDS011;1383;48.362;10.908;2023-02-05T09:08:33;13.07;;;11.25;;
2750;SDS011;1383;48.362;10.908;2023-02-05T09:11:01;12.88;;;9.68;;
2750;SDS011;1383;48.362;10.908;2023-02-05T09:13:27;13.20;;;10.85;;
2750;SDS011;1383;48.362;10.908;2023-02-05T09:15:54;11.40;;;9.32;;
2750;SDS011;1383;48.362;10.908;2023-02-05T09:18:21;11.85;;;10.18;;
2750;SDS011;1383;48.362;10.908;2023-02-05T09:20:48;12.00;;;10.23;;
2750;SDS011;1383;48.362;10.908;2023-02-05T09:23:16;10.18;;;8.90;;
2750;SDS011;1383;48.362;10.908;2023-02-05T09:25:43;15.57;;;12.65;;
2750;SDS011;1383;48.362;10.908;2023-02-05T09:28:11;14.18;;;9.80;;
2750;SDS011;1383;48.362;10.908;2023-02-05T09:30:40;11.90;;;10.05;;
2750;SDS011;1383;48.362;10.908;2023-02-05T09:33:09;12.25;;;9.40;;
2750;SDS011;1383;48.362;10.908;2023-02-05T09:35:37;13.35;;;10.95;;
2750;SDS011;1383;48.362;10.908;2023-02-05T09:38:04;13.07;;;11.35;;
2750;SDS011;1383;48.362;10.908;2023-02-05T09:40:33;10.40;;;9.27;;
2750;SDS011;1383;48.362;10.908;2023-02-05T09:43:25;12.60;;;9.57;;
2750;SDS011;1383;48.362;10.908;2023-02-05T09:46:08;13.32;;;10.75;;
2750;SDS011;1383;48.362;10.908;2023-02-05T09:48:51;12.50;;;10.32;;
2750;SDS011;1383;48.362;10.908;2023-02-05T09:51:43;14.60;;;12.20;;
2750;SDS011;1383;48.362;10.908;2023-02-05T09:54:19;14.45;;;11.48;;
2750;SDS011;1383;48.362;10.908;2023-02-05T09:56:52;10.73;;;9.73;;
2750;SDS011;1383;48.362;10.908;2023-02-05T09:59:24;12.52;;;11.13;;
2750;SDS011;1383;48.362;10.908;2023-02-05T10:04:23;13.35;;;10.38;;
2750;SDS011;1383;48.362;10.908;2023-02-05T10:12:48;12.80;;;10.13;;
2750;SDS011;1383;48.362;10.908;2023-02-05T10:16:08;15.02;;;12.52;;
2750;SDS011;1383;48.362;10.908;2023-02-05T10:18:46;10.43;;;9.43;;
2750;SDS011;1383;48.362;10.908;2023-02-05T10:21:52;13.90;;;10.98;;
2750;SDS011;1383;48.362;10.908;2023-02-05T10:27:27;14.55;;;11.57;;
2750;SDS011;1383;48.362;10.908;2023-02-05T10:32:43;13.30;;;10.20;;
2750;SDS011;1383;48.362;10.908;2023-02-05T10:35:22;12.75;;;11.38;;
2750;SDS011;1383;48.362;10.908;2023-02-05T10:38:04;19.58;;;12.60;;
2750;SDS011;1383;48.362;10.908;2023-02-05T10:40:48;17.55;;;10.13;;
2750;SDS011;1383;48.362;10.908;2023-02-05T10:43:20;14.57;;;10.60;;
2750;SDS011;1383;48.362;10.908;2023-02-05T10:46:12;11.60;;;9.77;;
2750;SDS011;1383;48.362;10.908;2023-02-05T10:54:16;13.48;;;9.55;;
2750;SDS011;1383;48.362;10.908;2023-02-05T10:56:51;12.57;;;10.65;;
2750;SDS011;1383;48.362;10.908;2023-02-05T10:59:22;11.00;;;9.90;;
2750;SDS011;1383;48.362;10.908;2023-02-05T11:01:53;12.02;;;10.90;;
2750;SDS011;1383;48.362;10.908;2023-02-05T11:04:42;12.25;;;9.20;;
2750;SDS011;1383;48.362;10.908;2023-02-05T11:07:22;15.43;;;11.13;;
2750;SDS011;1383;48.362;10.908;2023-02-05T11:09:53;12.38;;;10.20;;
2750;SDS011;1383;48.362;10.908;2023-02-05T11:12:29;12.93;;;10.48;;
2750;SDS011;1383;48.362;10.908;2023-02-05T11:14:59;12.98;;;11.70;;
2750;SDS011;1383;48.362;10.908;2023-02-05T11:17:31;15.25;;;12.20;;
2750;SDS011;1383;48.362;10.908;2023-02-05T11:20:20;14.10;;;11.27;;
2750;SDS011;1383;48.362;10.908;2023-02-05T11:25:57;14.95;;;12.32;;
2750;SDS011;1383;48.362;10.908;2023-02-05T11:28:33;14.38;;;12.82;;
2750;SDS011;1383;48.362;10.908;2023-02-05T11:36:33;12.02;;;10.60;;
2750;SDS011;1383;48.362;10.908;2023-02-05T11:39:04;16.05;;;10.75;;
2750;SDS011;1383;48.362;10.908;2023-02-05T11:41:33;12.57;;;10.32;;
2750;SDS011;1383;48.362;10.908;2023-02-05T11:44:18;12.48;;;10.52;;
2750;SDS011;1383;48.362;10.908;2023-02-05T11:46:57;13.95;;;11.27;;
2750;SDS011;1383;48.362;10.908;2023-02-05T11:49:33;13.52;;;9.55;;
2750;SDS011;1383;48.362;10.908;2023-02-05T11:52:10;11.80;;;9.90;;
2750;SDS011;1383;48.362;10.908;2023-02-05T11:54:38;11.32;;;10.10;;
2750;SDS011;1383;48.362;10.908;2023-02-05T12:00:05;11.75;;;10.60;;
2750;SDS011;1383;48.362;10.908;2023-02-05T12:02:45;19.63;;;11.10;;
2750;SDS011;1383;48.362;10.908;2023-02-05T12:05:25;12.73;;;9.75;;
2750;SDS011;1383;48.362;10.908;2023-02-05T12:08:00;14.13;;;9.52;;
2750;SDS011;1383;48.362;10.908;2023-02-05T12:11:02;11.88;;;10.63;;
2750;SDS011;1383;48.362;10.908;2023-02-05T12:19:23;12.13;;;10.93;;
2750;SDS011;1383;48.362;10.908;2023-02-05T12:33:13;12.25;;;11.05;;
2750;SDS011;1383;48.362;10.908;2023-02-05T12:39:07;13.07;;;10.50;;
2750;SDS011;1383;48.362;10.908;2023-02-05T12:53:35;15.93;;;12.82;;
2750;SDS011;1383;48.362;10.908;2023-02-05T12:59:00;17.65;;;12.00;;
2750;SDS011;1383;48.362;10.908;2023-02-05T13:04:04;17.33;;;13.45;;
2750;SDS011;1383;48.362;10.908;2023-02-05T13:06:36;14.93;;;12.30;;
2750;SDS011;1383;48.362;10.908;2023-02-05T13:09:18;16.17;;;12.32;;
2750;SDS011;1383;48.362;10.908;2023-02-05T13:14:23;15.27;;;11.90;;
2750;SDS011;1383;48.362;10.908;2023-02-05T13:16:54;15.48;;;11.85;;
2750;SDS011;1383;48.362;10.908;2023-02-05T13:19:33;13.88;;;12.43;;
2750;SDS011;1383;48.362;10.908;2023-02-05T13:22:17;15.38;;;11.88;;
2750;SDS011;1383;48.362;10.908;2023-02-05T13:25:32;16.98;;;12.65;;
2750;SDS011;1383;48.362;10.908;2023-02-05T13:28:27;20.05;;;13.07;;
2750;SDS011;1383;48.362;10.908;2023-02-05T13:31:10;17.38;;;13.63;;
2750;SDS011;1383;48.362;10.908;2023-02-05T13:33:42;20.98;;;15.93;;
2750;SDS011;1383;48.362;10.908;2023-02-05T14:00:30;19.85;;;13.18;;
2750;SDS011;1383;48.362;10.908;2023-02-05T14:02:58;15.45;;;12.95;;
2750;SDS011;1383;48.362;10.908;2023-02-05T14:05:32;15.15;;;12.02;;
2750;SDS011;1383;48.362;10.908;2023-02-05T14:08:01;15.32;;;13.73;;
2750;SDS011;1383;48.362;10.908;2023-02-05T14:10:30;14.75;;;11.00;;
2750;SDS011;1383;48.362;10.908;2023-02-05T14:15:51;15.02;;;11.05;;
2750;SDS011;1383;48.362;10.908;2023-02-05T14:23:59;16.88;;;8.93;;
2750;SDS011;1383;48.362;10.908;2023-02-05T14:26:53;12.65;;;8.77;;
2750;SDS011;1383;48.362;10.908;2023-02-05T14:34:59;15.80;;;10.45;;
2750;SDS011;1383;48.362;10.908;2023-02-05T14:37:44;17.65;;;9.13;;
2750;SDS011;1383;48.362;10.908;2023-02-05T14:42:56;15.48;;;7.57;;
2750;SDS011;1383;48.362;10.908;2023-02-05T14:45:40;14.10;;;7.85;;
2750;SDS011;1383;48.362;10.908;2023-02-05T14:48:23;17.38;;;8.30;;
2750;SDS011;1383;48.362;10.908;2023-02-05T14:53:33;16.88;;;8.90;;
2750;SDS011;1383;48.362;10.908;2023-02-05T14:56:02;11.15;;;7.95;;
2750;SDS011;1383;48.362;10.908;2023-02-05T14:58:34;15.25;;;8.57;;
2750;SDS011;1383;48.362;10.908;2023-02-05T15:03:53;21.45;;;12.82;;
2750;SDS011;1383;48.362;10.908;2023-02-05T15:06:22;14.98;;;10.30;;
2750;SDS011;1383;48.362;10.908;2023-02-05T15:14:35;18.25;;;10.65;;
2750;SDS011;1383;48.362;10.908;2023-02-05T15:19:39;15.05;;;10.60;;
2750;SDS011;1383;48.362;10.908;2023-02-05T15:22:20;20.55;;;10.13;;
2750;SDS011;1383;48.362;10.908;2023-02-05T15:24:48;16.98;;;10.63;;
2750;SDS011;1383;48.362;10.908;2023-02-05T15:27:20;20.90;;;13.90;;
2750;SDS011;1383;48.362;10.908;2023-02-05T15:29:53;21.58;;;11.65;;
2750;SDS011;1383;48.362;10.908;2023-02-05T15:35:04;19.33;;;12.23;;
2750;SDS011;1383;48.362;10.908;2023-02-05T15:40:26;13.18;;;11.77;;
2750;SDS011;1383;48.362;10.908;2023-02-05T15:43:14;22.05;;;14.13;;
2750;SDS011;1383;48.362;10.908;2023-02-05T15:45:42;20.27;;;14.05;;
2750;SDS011;1383;48.362;10.908;2023-02-05T15:56:44;20.40;;;12.85;;
2750;SDS011;1383;48.362;10.908;2023-02-05T15:58:58;18.40;;;14.13;;
2750;SDS011;1383;48.362;10.908;2023-02-05T16:01:30;36.70;;;18.77;;
2750;SDS011;1383;48.362;10.908;2023-02-05T16:04:10;35.40;;;21.58;;
2750;SDS011;1383;48.362;10.908;2023-02-05T16:06:52;27.25;;;18.23;;
2750;SDS011;1383;48.362;10.908;2023-02-05T16:09:20;26.15;;;15.77;;
2750;SDS011;1383;48.362;10.908;2023-02-05T16:11:49;24.00;;;14.60;;
2750;SDS011;1383;48.362;10.908;2023-02-05T16:14:18;21.15;;;13.85;;
2750;SDS011;1383;48.362;10.908;2023-02-05T16:19:46;23.95;;;15.23;;
2750;SDS011;1383;48.362;10.908;2023-02-05T16:22:21;20.95;;;14.27;;
2750;SDS011;1383;48.362;10.908;2023-02-05T16:27:58;23.80;;;14.52;;
2750;SDS011;1383;48.362;10.908;2023-02-05T16:33:14;24.55;;;12.90;;
2750;SDS011;1383;48.362;10.908;2023-02-05T16:36:05;21.42;;;12.73;;
2750;SDS011;1383;48.362;10.908;2023-02-05T16:38:38;16.10;;;12.25;;
2750;SDS011;1383;48.362;10.908;2023-02-05T16:41:24;37.97;;;23.00;;
2750;SDS011;1383;48.362;10.908;2023-02-05T16:43:54;20.27;;;13.88;;
2750;SDS011;1383;48.362;10.908;2023-02-05T16:46:25;17.80;;;12.50;;
2750;SDS011;1383;48.362;10.908;2023-02-05T16:48:57;27.42;;;14.20;;
2750;SDS011;1383;48.362;10.908;2023-02-05T16:54:29;23.95;;;15.73;;
2750;SDS011;1383;48.362;10.908;2023-02-05T16:57:04;24.50;;;14.15;;
2750;SDS011;1383;48.362;10.908;2023-02-05T17:02:23;27.15;;;14.60;;
2750;SDS011;1383;48.362;10.908;2023-02-05T17:04:57;24.77;;;14.40;;
2750;SDS011;1383;48.362;10.908;2023-02-05T17:07:26;31.05;;;15.88;;
2750;SDS011;1383;48.362;10.908;2023-02-05T17:13:01;27.33;;;16.42;;
2750;SDS011;1383;48.362;10.908;2023-02-05T17:18:20;18.50;;;11.90;;
2750;SDS011;1383;48.362;10.908;2023-02-05T17:23:53;20.15;;;13.55;;
2750;SDS011;1383;48.362;10.908;2023-02-05T17:26:22;18.63;;;14.27;;
2750;SDS011;1383;48.362;10.908;2023-02-05T17:28:51;21.88;;;12.88;;
2750;SDS011;1383;48.362;10.908;2023-02-05T17:31:22;20.52;;;13.25;;
2750;SDS011;1383;48.362;10.908;2023-02-05T17:33:52;22.92;;;12.20;;
2750;SDS011;1383;48.362;10.908;2023-02-05T17:36:20;22.27;;;11.43;;
2750;SDS011;1383;48.362;10.908;2023-02-05T17:38:47;20.30;;;12.25;;
2750;SDS011;1383;48.362;10.908;2023-02-05T17:41:15;22.23;;;13.15;;
2750;SDS011;1383;48.362;10.908;2023-02-05T17:44:03;16.67;;;11.77;;
2750;SDS011;1383;48.362;10.908;2023-02-05T17:46:30;20.95;;;13.27;;
2750;SDS011;1383;48.362;10.908;2023-02-05T17:48:57;23.05;;;12.93;;
2750;SDS011;1383;48.362;10.908;2023-02-05T17:51:24;23.52;;;14.98;;
2750;SDS011;1383;48.362;10.908;2023-02-05T17:53:51;20.70;;;12.93;;
2750;SDS011;1383;48.362;10.908;2023-02-05T17:56:18;25.23;;;14.85;;
2750;SDS011;1383;48.362;10.908;2023-02-05T17:58:47;25.65;;;17.02;;
2750;SDS011;1383;48.362;10.908;2023-02-05T18:01:14;25.55;;;16.95;;
2750;SDS011;1383;48.362;10.908;2023-02-05T18:03:42;24.35;;;16.65;;
2750;SDS011;1383;48.362;10.908;2023-02-05T18:06:10;32.00;;;19.38;;
2750;SDS011;1383;48.362;10.908;2023-02-05T18:08:39;26.55;;;16.55;;
2750;SDS011;1383;48.362;10.908;2023-02-05T18:11:07;23.17;;;15.85;;
2750;SDS011;1383;48.362;10.908;2023-02-05T18:13:35;22.98;;;16.73;;